createdAt,value
2018-12-23T00:02:29.033Z,4.20
2018-12-23T00:04:57.904Z,3.90
2018-12-23T00:07:26.843Z,4.20
2018-12-23T00:09:55.785Z,3.60
2018-12-23T00:12:25.056Z,3.87
2018-12-23T00:14:53.816Z,4.47
2018-12-23T00:17:22.704Z,3.40
2018-12-23T00:19:51.581Z,3.70
2018-12-23T00:22:20.400Z,4.40
2018-12-23T00:24:49.258Z,4.60
2018-12-23T00:27:18.150Z,4.03
2018-12-23T00:29:47.000Z,5.03
2018-12-23T00:32:15.827Z,4.63
2018-12-23T00:34:44.690Z,4.90
2018-12-23T00:37:13.509Z,4.67
2018-12-23T00:39:42.330Z,4.50
2018-12-23T00:42:12.200Z,4.57
2018-12-23T00:44:42.063Z,4.80
2018-12-23T00:47:10.857Z,4.47
2018-12-23T00:49:39.701Z,4.97
2018-12-23T00:52:08.613Z,4.77
2018-12-23T00:54:37.437Z,3.90
2018-12-23T00:57:06.253Z,4.27
2018-12-23T00:59:35.213Z,5.17
2018-12-23T01:02:04.119Z,5.17
2018-12-23T01:04:33.017Z,5.60
2018-12-23T01:07:01.821Z,4.80
2018-12-23T01:09:30.737Z,5.47
2018-12-23T01:11:59.548Z,5.00
2018-12-23T01:14:28.361Z,5.60
2018-12-23T01:16:57.182Z,5.00
2018-12-23T01:19:26.025Z,5.17
2018-12-23T01:21:54.844Z,6.40
2018-12-23T01:24:23.665Z,5.67
2018-12-23T01:26:52.536Z,6.03
2018-12-23T01:29:21.410Z,5.80
2018-12-23T01:31:50.238Z,4.67
2018-12-23T01:34:19.142Z,5.90
2018-12-23T01:36:47.955Z,5.23
2018-12-23T01:39:16.816Z,4.33
2018-12-23T01:41:45.664Z,4.90
2018-12-23T01:44:14.477Z,4.67
2018-12-23T01:46:43.397Z,6.47
2018-12-23T01:49:12.798Z,5.47
2018-12-23T01:51:41.601Z,7.17
2018-12-23T01:54:10.522Z,5.87
2018-12-23T01:56:39.337Z,5.03
2018-12-23T01:59:08.201Z,5.50
2018-12-23T02:01:37.085Z,4.83
2018-12-23T02:04:06.074Z,5.50
2018-12-23T02:06:34.964Z,5.43
2018-12-23T02:09:05.242Z,5.33
2018-12-23T02:11:34.413Z,6.10
2018-12-23T02:14:03.287Z,5.50
2018-12-23T02:16:32.172Z,4.83
2018-12-23T02:19:01.049Z,5.80
2018-12-23T02:21:29.950Z,5.13
2018-12-23T02:23:58.855Z,5.77
2018-12-23T02:26:27.833Z,5.73
2018-12-23T02:28:57.345Z,5.60
2018-12-23T02:31:26.176Z,6.07
2018-12-23T02:33:55.121Z,6.30
2018-12-23T02:36:30.573Z,6.83
2018-12-23T02:38:59.451Z,5.87
2018-12-23T02:41:31.911Z,6.10
2018-12-23T02:43:59.102Z,6.27
2018-12-23T02:46:27.966Z,6.37
2018-12-23T02:48:56.851Z,6.00
2018-12-23T02:51:25.733Z,6.50
2018-12-23T02:53:54.634Z,6.50
2018-12-23T02:56:23.557Z,6.83
2018-12-23T02:58:52.404Z,7.17
2018-12-23T03:01:21.270Z,7.27
2018-12-23T03:03:51.230Z,6.97
2018-12-23T03:06:20.118Z,7.53
2018-12-23T03:08:49.008Z,7.43
2018-12-23T03:11:17.875Z,6.67
2018-12-23T03:13:46.695Z,7.57
2018-12-23T03:16:15.869Z,7.40
2018-12-23T03:18:44.780Z,8.00
2018-12-23T03:21:13.653Z,9.00
2018-12-23T03:23:42.549Z,9.80
2018-12-23T03:26:11.624Z,8.83
2018-12-23T03:28:40.534Z,8.17
2018-12-23T03:31:09.427Z,7.93
2018-12-23T03:33:38.327Z,9.33
2018-12-23T03:36:15.001Z,8.53
2018-12-23T03:38:38.836Z,9.47
2018-12-23T03:41:07.861Z,10.03
2018-12-23T03:43:36.731Z,8.47
2018-12-23T03:46:05.679Z,8.13
2018-12-23T03:48:34.525Z,8.90
2018-12-23T03:51:04.026Z,8.57
2018-12-23T03:53:33.733Z,8.90
2018-12-23T03:56:02.561Z,7.73
2018-12-23T03:58:31.369Z,9.20
2018-12-23T04:01:00.244Z,11.20
2018-12-23T04:03:29.072Z,9.97
2018-12-23T04:05:57.957Z,9.50
2018-12-23T04:08:26.798Z,10.60
2018-12-23T04:10:55.692Z,10.37
2018-12-23T04:13:24.672Z,11.80
2018-12-23T04:15:53.477Z,12.70
2018-12-23T04:18:22.388Z,10.37
2018-12-23T04:20:51.213Z,11.63
2018-12-23T04:23:20.423Z,10.53
2018-12-23T04:25:49.308Z,12.50
2018-12-23T04:28:18.629Z,12.67
2018-12-23T04:30:48.093Z,11.97
2018-12-23T04:33:16.997Z,12.93
2018-12-23T04:35:45.902Z,13.77
2018-12-23T04:38:14.783Z,12.47
2018-12-23T04:40:43.782Z,14.57
2018-12-23T04:43:12.640Z,13.43
2018-12-23T04:45:41.481Z,12.97
2018-12-23T04:48:10.374Z,12.20
2018-12-23T04:50:39.277Z,13.37
2018-12-23T04:53:08.094Z,11.10
2018-12-23T04:55:37.016Z,13.50
2018-12-23T04:58:05.907Z,12.47
2018-12-23T05:00:34.797Z,12.43
2018-12-23T05:03:03.732Z,13.30
2018-12-23T05:05:32.586Z,11.50
2018-12-23T05:08:01.502Z,10.93
2018-12-23T05:10:30.379Z,10.83
2018-12-23T05:12:59.318Z,11.10
2018-12-23T05:15:28.152Z,11.13
2018-12-23T05:17:57.069Z,11.67
2018-12-23T05:20:26.871Z,11.33
2018-12-23T05:22:55.739Z,11.13
2018-12-23T05:25:25.541Z,10.30
2018-12-23T05:27:54.436Z,11.80
2018-12-23T05:30:23.316Z,11.07
2018-12-23T05:32:52.197Z,11.20
2018-12-23T05:35:21.273Z,11.03
2018-12-23T05:37:50.184Z,11.07
2018-12-23T05:40:18.975Z,10.80
2018-12-23T05:42:47.805Z,9.87
2018-12-23T05:45:16.612Z,9.77
2018-12-23T05:47:45.440Z,9.67
2018-12-23T05:50:14.249Z,9.73
2018-12-23T05:52:43.058Z,8.90
2018-12-23T05:55:11.917Z,9.77
2018-12-23T05:57:40.748Z,9.10
2018-12-23T06:00:09.596Z,8.07
2018-12-23T06:02:38.457Z,8.57
2018-12-23T06:05:07.404Z,8.03
2018-12-23T06:07:36.201Z,8.40
2018-12-23T06:10:05.229Z,11.10
2018-12-23T06:12:34.049Z,9.37
2018-12-23T06:15:02.982Z,9.43
2018-12-23T06:17:31.785Z,8.67
2018-12-23T06:20:00.623Z,8.77
2018-12-23T06:22:29.601Z,8.70
2018-12-23T06:24:58.728Z,8.80
2018-12-23T06:27:27.716Z,8.57
2018-12-23T06:29:56.515Z,8.47
2018-12-23T06:32:25.324Z,7.53
2018-12-23T06:34:54.165Z,7.67
2018-12-23T06:37:23.137Z,6.57
2018-12-23T06:39:52.506Z,7.27
2018-12-23T06:42:21.319Z,6.90
2018-12-23T06:44:50.284Z,7.00
2018-12-23T06:47:19.101Z,7.23
2018-12-23T06:49:47.953Z,6.73
2018-12-23T06:52:16.888Z,6.40
2018-12-23T06:54:45.756Z,6.50
2018-12-23T06:57:14.596Z,6.93
2018-12-23T06:59:43.454Z,6.87
2018-12-23T07:02:12.269Z,6.40
2018-12-23T07:04:41.094Z,5.90
2018-12-23T07:07:18.450Z,6.20
2018-12-23T07:09:40.790Z,6.67
2018-12-23T07:12:09.593Z,5.83
2018-12-23T07:14:38.557Z,5.97
2018-12-23T07:17:07.388Z,6.60
2018-12-23T07:19:37.876Z,6.03
2018-12-23T07:22:07.934Z,7.67
2018-12-23T07:24:36.753Z,5.77
2018-12-23T07:27:05.641Z,6.17
2018-12-23T07:29:34.633Z,6.10
2018-12-23T07:32:03.515Z,5.53
2018-12-23T07:34:32.506Z,5.90
2018-12-23T07:37:01.325Z,5.93
2018-12-23T07:39:30.303Z,6.43
2018-12-23T07:41:59.126Z,5.80
2018-12-23T07:44:28.016Z,5.80
2018-12-23T07:46:56.919Z,5.10
2018-12-23T07:49:25.790Z,5.67
2018-12-23T07:51:54.633Z,5.47
2018-12-23T07:54:23.460Z,5.40
2018-12-23T07:56:52.385Z,4.53
2018-12-23T07:59:21.229Z,5.30
2018-12-23T08:01:50.149Z,5.40
2018-12-23T08:04:19.015Z,5.00
2018-12-23T08:06:47.885Z,5.93
2018-12-23T08:09:17.037Z,5.20
2018-12-23T08:11:45.881Z,4.70
2018-12-23T08:14:14.700Z,4.60
2018-12-23T08:16:43.545Z,4.40
2018-12-23T08:19:12.400Z,4.57
2018-12-23T08:21:41.336Z,5.13
2018-12-23T08:24:10.521Z,4.97
2018-12-23T08:26:39.328Z,4.67
2018-12-23T08:29:08.206Z,4.07
2018-12-23T08:31:37.288Z,3.60
2018-12-23T08:34:06.112Z,3.63
2018-12-23T08:36:34.949Z,3.20
2018-12-23T08:39:05.014Z,3.97
2018-12-23T08:41:33.965Z,3.63
2018-12-23T08:44:02.912Z,4.23
2018-12-23T08:46:38.926Z,3.93
2018-12-23T08:49:02.540Z,3.43
2018-12-23T08:51:31.415Z,3.57
2018-12-23T08:54:00.232Z,3.50
2018-12-23T08:56:29.046Z,3.73
2018-12-23T08:58:57.880Z,3.40
2018-12-23T09:01:26.723Z,2.63
2018-12-23T09:03:55.648Z,3.40
2018-12-23T09:06:24.477Z,3.27
2018-12-23T09:08:53.366Z,3.10
2018-12-23T09:11:22.157Z,2.90
2018-12-23T09:13:51.141Z,4.20
2018-12-23T09:16:20.120Z,4.77
2018-12-23T09:18:49.070Z,3.57
2018-12-23T09:21:18.292Z,3.33
2018-12-23T09:23:48.548Z,2.87
2018-12-23T09:26:17.308Z,3.20
2018-12-23T09:28:47.756Z,3.33
2018-12-23T09:31:16.569Z,2.93
2018-12-23T09:33:45.400Z,3.40
2018-12-23T09:36:14.212Z,3.87
2018-12-23T09:38:43.061Z,3.77
2018-12-23T09:41:11.897Z,3.73
2018-12-23T09:43:40.809Z,3.40
2018-12-23T09:46:09.665Z,3.47
2018-12-23T09:48:38.592Z,3.20
2018-12-23T09:51:07.461Z,3.73
2018-12-23T09:53:36.347Z,2.97
2018-12-23T09:56:05.243Z,3.50
2018-12-23T09:58:34.118Z,2.80
2018-12-23T10:01:03.024Z,3.80
2018-12-23T10:03:31.899Z,3.17
2018-12-23T10:06:00.813Z,3.80
2018-12-23T10:08:29.689Z,3.87
2018-12-23T10:10:58.530Z,3.00
2018-12-23T10:13:27.342Z,3.10
2018-12-23T10:15:56.204Z,3.20
2018-12-23T10:18:25.039Z,3.40
2018-12-23T10:20:53.932Z,3.80
2018-12-23T10:23:22.834Z,3.50
2018-12-23T10:25:51.863Z,4.63
2018-12-23T10:28:20.824Z,4.50
2018-12-23T10:30:49.753Z,4.63
2018-12-23T10:33:18.586Z,4.87
2018-12-23T10:35:47.525Z,4.10
2018-12-23T10:38:18.507Z,4.10
2018-12-23T10:40:48.244Z,4.23
2018-12-23T10:43:17.144Z,4.23
2018-12-23T10:45:46.064Z,4.20
2018-12-23T10:48:14.992Z,3.73
2018-12-23T10:50:43.964Z,4.20
2018-12-23T10:53:12.908Z,4.97
2018-12-23T10:55:41.772Z,4.43
2018-12-23T10:58:10.605Z,4.93
2018-12-23T11:00:40.489Z,4.67
2018-12-23T11:03:09.389Z,4.80
2018-12-23T11:05:38.981Z,5.17
2018-12-23T11:08:07.865Z,4.83
2018-12-23T11:10:36.730Z,3.67
2018-12-23T11:13:05.596Z,4.17
2018-12-23T11:15:34.457Z,4.13
2018-12-23T11:18:03.469Z,4.00
2018-12-23T11:20:32.289Z,4.50
2018-12-23T11:23:01.104Z,3.40
2018-12-23T11:25:29.922Z,4.80
2018-12-23T11:27:58.733Z,5.17
2018-12-23T11:30:27.555Z,4.87
2018-12-23T11:32:56.384Z,4.70
2018-12-23T11:35:25.217Z,4.50
2018-12-23T11:37:54.056Z,3.93
2018-12-23T11:40:22.964Z,4.43
2018-12-23T11:42:51.890Z,4.33
2018-12-23T11:45:20.704Z,5.00
2018-12-23T11:47:49.528Z,3.97
2018-12-23T11:50:18.464Z,4.43
2018-12-23T11:52:47.388Z,4.97
2018-12-23T11:55:16.278Z,4.40
2018-12-23T11:57:45.233Z,5.37
2018-12-23T12:00:14.101Z,5.03
2018-12-23T12:02:49.781Z,5.00
2018-12-23T12:05:18.618Z,4.50
2018-12-23T12:07:47.421Z,5.10
2018-12-23T12:10:16.327Z,5.07
2018-12-23T12:12:45.204Z,4.20
2018-12-23T12:15:14.029Z,4.80
2018-12-23T12:17:45.952Z,5.27
2018-12-23T12:20:14.828Z,4.63
2018-12-23T12:22:43.776Z,4.77
2018-12-23T12:25:12.757Z,4.70
2018-12-23T12:27:41.588Z,4.33
2018-12-23T12:30:10.528Z,3.83
2018-12-23T12:32:39.377Z,3.23
2018-12-23T12:35:08.268Z,3.90
2018-12-23T12:37:37.097Z,3.30
2018-12-23T12:40:06.669Z,3.97
2018-12-23T12:42:37.048Z,3.27
2018-12-23T12:45:06.271Z,2.87
2018-12-23T12:47:35.204Z,3.87
2018-12-23T12:50:04.338Z,3.67
2018-12-23T12:52:33.180Z,2.60
2018-12-23T12:55:02.010Z,3.23
2018-12-23T12:57:30.887Z,3.13
2018-12-23T12:59:59.717Z,2.80
2018-12-23T13:02:28.648Z,3.00
2018-12-23T13:04:57.492Z,3.13
2018-12-23T13:07:26.486Z,2.77
2018-12-23T13:09:55.394Z,2.77
2018-12-23T13:12:24.384Z,2.83
2018-12-23T13:14:53.331Z,2.83
2018-12-23T13:17:22.153Z,2.50
2018-12-23T13:19:51.048Z,2.30
2018-12-23T13:22:19.887Z,3.20
2018-12-23T13:24:48.828Z,2.63
2018-12-23T13:27:17.700Z,3.03
2018-12-23T13:29:46.604Z,3.40
2018-12-23T13:32:15.514Z,2.40
2018-12-23T13:34:44.356Z,2.50
2018-12-23T13:37:13.269Z,2.53
2018-12-23T13:39:42.369Z,2.40
2018-12-23T13:42:23.504Z,2.67
2018-12-23T13:45:01.677Z,2.27
2018-12-23T13:47:49.405Z,2.97
2018-12-23T13:50:34.221Z,2.73
2018-12-23T13:54:16.581Z,2.80
2018-12-23T13:57:02.152Z,3.63
2018-12-23T13:59:42.782Z,3.00
2018-12-23T14:02:23.300Z,3.60
2018-12-23T14:05:04.152Z,3.57
2018-12-23T14:08:01.440Z,4.50
2018-12-23T14:10:47.493Z,3.30
2018-12-23T14:13:16.374Z,3.97
2018-12-23T14:15:45.311Z,3.93
2018-12-23T14:18:14.231Z,4.03
2018-12-23T14:20:43.226Z,3.70
2018-12-23T14:23:12.154Z,3.80
2018-12-23T14:25:42.369Z,3.50
2018-12-23T14:28:11.462Z,3.30
2018-12-23T14:30:40.419Z,3.13
2018-12-23T14:33:09.497Z,3.43
2018-12-23T14:35:38.951Z,3.37
2018-12-23T14:38:08.312Z,3.57
2018-12-23T14:40:37.244Z,3.87
2018-12-23T14:43:06.080Z,3.90
2018-12-23T14:45:34.976Z,3.63
2018-12-23T14:48:04.836Z,3.67
2018-12-23T14:50:33.735Z,4.10
2018-12-23T14:53:03.818Z,4.47
2018-12-23T14:55:32.812Z,3.73
2018-12-23T14:58:01.756Z,4.10
2018-12-23T15:00:30.714Z,4.30
2018-12-23T15:02:59.697Z,4.13
2018-12-23T15:05:28.512Z,4.03
2018-12-23T15:07:57.508Z,4.10
2018-12-23T15:10:26.380Z,5.30
2018-12-23T15:12:55.377Z,4.67
2018-12-23T15:15:24.251Z,4.53
2018-12-23T15:17:53.162Z,4.80
2018-12-23T15:20:22.573Z,4.30
2018-12-23T15:22:51.468Z,4.57
2018-12-23T15:25:20.366Z,4.83
2018-12-23T15:27:49.244Z,3.70
2018-12-23T15:30:18.120Z,3.87
2018-12-23T15:32:47.092Z,3.83
2018-12-23T15:35:16.103Z,4.17
2018-12-23T15:37:44.996Z,4.37
2018-12-23T15:40:14.008Z,4.83
2018-12-23T15:42:42.976Z,4.83
2018-12-23T15:45:11.888Z,4.53
2018-12-23T15:47:40.763Z,4.83
2018-12-23T15:50:09.660Z,4.27
2018-12-23T15:52:38.541Z,5.10
2018-12-23T15:55:07.437Z,4.93
2018-12-23T15:57:36.440Z,5.00
2018-12-23T16:00:05.953Z,5.57
2018-12-23T16:02:34.812Z,4.73
2018-12-23T16:05:03.786Z,5.50
2018-12-23T16:07:32.605Z,4.67
2018-12-23T16:10:01.625Z,4.57
2018-12-23T16:12:32.086Z,4.87
2018-12-23T16:15:00.989Z,4.70
2018-12-23T16:17:29.901Z,4.60
2018-12-23T16:19:58.782Z,4.47
2018-12-23T16:22:27.666Z,4.33
2018-12-23T16:24:56.626Z,4.90
2018-12-23T16:27:25.450Z,4.90
2018-12-23T16:29:54.293Z,4.67
2018-12-23T16:32:23.140Z,4.87
2018-12-23T16:34:51.993Z,4.50
2018-12-23T16:37:20.853Z,4.00
2018-12-23T16:39:49.725Z,3.90
2018-12-23T16:42:18.527Z,4.97
2018-12-23T16:44:47.373Z,3.93
2018-12-23T16:47:16.236Z,4.13
2018-12-23T16:49:45.297Z,5.00
2018-12-23T16:52:14.201Z,4.60
2018-12-23T16:54:43.086Z,4.43
2018-12-23T16:57:11.934Z,3.83
2018-12-23T16:59:40.900Z,4.27
2018-12-23T17:02:09.765Z,3.73
2018-12-23T17:04:38.776Z,4.17
2018-12-23T17:07:07.653Z,4.30
2018-12-23T17:09:36.520Z,4.00
2018-12-23T17:12:05.383Z,4.73
2018-12-23T17:14:34.292Z,4.60
2018-12-23T17:17:03.273Z,4.00
2018-12-23T17:19:32.180Z,4.47
2018-12-23T17:22:01.021Z,4.53
2018-12-23T17:24:30.922Z,4.40
2018-12-23T17:26:59.832Z,4.77
2018-12-23T17:29:28.683Z,5.37
2018-12-23T17:31:57.549Z,6.00
2018-12-23T17:34:26.472Z,5.70
2018-12-23T17:36:55.343Z,5.00
2018-12-23T17:39:24.256Z,4.60
2018-12-23T17:41:53.127Z,4.30
2018-12-23T17:44:21.957Z,4.43
2018-12-23T17:46:53.023Z,3.80
2018-12-23T17:49:21.792Z,3.83
2018-12-23T17:51:50.812Z,3.70
2018-12-23T17:54:19.726Z,4.50
2018-12-23T17:56:48.645Z,4.43
2018-12-23T17:59:17.472Z,4.60
2018-12-23T18:01:46.799Z,4.70
2018-12-23T18:04:15.648Z,5.33
2018-12-23T18:06:44.583Z,5.30
2018-12-23T18:09:13.418Z,4.90
2018-12-23T18:11:42.490Z,5.90
2018-12-23T18:14:12.478Z,5.73
2018-12-23T18:16:41.909Z,5.47
2018-12-23T18:19:11.057Z,5.13
2018-12-23T18:21:39.999Z,5.07
2018-12-23T18:24:08.988Z,5.70
2018-12-23T18:26:45.084Z,6.37
2018-12-23T18:29:09.777Z,6.40
2018-12-23T18:31:38.745Z,7.03
2018-12-23T18:34:07.888Z,6.70
2018-12-23T18:36:36.784Z,7.23
2018-12-23T18:39:07.339Z,6.77
2018-12-23T18:41:36.360Z,8.20
2018-12-23T18:44:05.208Z,7.23
2018-12-23T18:46:35.279Z,7.10
2018-12-23T18:49:05.024Z,7.40
2018-12-23T18:51:34.016Z,8.50
2018-12-23T18:54:03.021Z,7.90
2018-12-23T18:56:39.664Z,8.53
2018-12-23T18:59:08.735Z,8.03
2018-12-23T19:01:39.998Z,8.67
2018-12-23T19:04:09.141Z,9.40
2018-12-23T19:06:38.188Z,8.97
2018-12-23T19:09:15.353Z,9.07
2018-12-23T19:14:56.334Z,8.47
2018-12-23T19:19:46.231Z,7.63
2018-12-23T19:22:34.303Z,9.30
2018-12-23T19:25:18.423Z,9.10
2018-12-23T19:28:07.823Z,9.37
2018-12-23T19:33:00.185Z,9.10
2018-12-23T19:35:41.136Z,9.43
2018-12-23T19:38:26.190Z,9.20
2018-12-23T19:41:24.392Z,10.57
2018-12-23T19:44:05.393Z,10.17
2018-12-23T19:47:17.493Z,10.47
2018-12-23T19:50:02.461Z,10.23
2018-12-23T19:54:54.132Z,10.07
2018-12-23T19:57:31.113Z,8.17
2018-12-23T20:00:12.840Z,8.83
2018-12-23T20:03:27.404Z,8.23
2018-12-23T20:06:16.119Z,9.13
2018-12-23T20:11:00.852Z,8.67
2018-12-23T20:13:39.453Z,7.57
2018-12-23T20:16:23.189Z,7.33
2018-12-23T20:19:33.206Z,8.30
2018-12-23T20:24:33.217Z,7.87
2018-12-23T20:27:15.781Z,6.90
2018-12-23T20:29:57.405Z,7.67
2018-12-23T20:32:40.101Z,7.27
2018-12-23T20:35:29.285Z,6.73
2018-12-23T20:38:14.412Z,7.43
2018-12-23T20:43:03.277Z,8.53
2018-12-23T20:45:46.942Z,8.50
2018-12-23T20:48:37.595Z,8.10
2018-12-23T20:51:27.594Z,9.13
2018-12-23T20:54:04.804Z,9.20
2018-12-23T20:56:54.739Z,8.80
2018-12-23T20:59:50.705Z,11.13
2018-12-23T21:04:54.444Z,9.30
2018-12-23T21:09:41.035Z,10.03
2018-12-23T21:13:26.112Z,8.80
2018-12-23T21:16:09.744Z,7.57
2018-12-23T21:19:03.857Z,7.40
2018-12-23T21:21:49.857Z,6.63
2018-12-23T21:24:28.845Z,5.97
2018-12-23T21:27:09.220Z,6.13
2018-12-23T21:29:49.008Z,6.13
2018-12-23T21:32:30.140Z,4.80
2018-12-23T21:35:14.617Z,4.90
2018-12-23T21:37:53.376Z,3.50
2018-12-23T21:42:38.923Z,3.67
2018-12-23T21:47:40.482Z,2.90
2018-12-23T21:52:23.010Z,3.40
2018-12-23T21:55:29.093Z,3.20
2018-12-23T21:58:16.657Z,3.20
2018-12-23T22:02:02.276Z,2.90
2018-12-23T22:05:02.286Z,2.23
2018-12-23T22:07:47.268Z,2.43
2018-12-23T22:10:25.323Z,2.07
2018-12-23T22:13:30.909Z,2.30
2018-12-23T22:15:59.770Z,2.33
2018-12-23T22:18:29.373Z,2.67
2018-12-23T22:20:58.257Z,2.90
2018-12-23T22:23:28.269Z,3.17
2018-12-23T22:25:58.899Z,3.03
2018-12-23T22:28:28.737Z,3.17
2018-12-23T22:30:57.728Z,4.07
2018-12-23T22:33:26.553Z,3.17
2018-12-23T22:35:55.353Z,3.07
2018-12-23T22:38:24.245Z,2.97
2018-12-23T22:40:59.125Z,4.13
2018-12-23T22:43:27.964Z,3.37
2018-12-23T22:45:56.856Z,3.93
2018-12-23T22:48:26.745Z,6.97
2018-12-23T22:50:55.633Z,6.33
2018-12-23T22:53:24.565Z,4.00
2018-12-23T22:55:53.397Z,3.90
2018-12-23T22:58:22.233Z,3.00
2018-12-23T23:00:51.254Z,2.40
2018-12-23T23:03:20.379Z,2.73
2018-12-23T23:05:49.193Z,2.10
2018-12-23T23:08:17.992Z,2.13
2018-12-23T23:10:46.792Z,1.80
2018-12-23T23:13:18.779Z,2.07
2018-12-23T23:15:46.549Z,2.17
2018-12-23T23:18:15.404Z,2.27
2018-12-23T23:20:44.269Z,2.70
2018-12-23T23:23:13.108Z,2.90
2018-12-23T23:25:42.025Z,3.30
2018-12-23T23:28:10.900Z,3.33
2018-12-23T23:30:39.747Z,2.87
2018-12-23T23:33:08.721Z,3.37
2018-12-23T23:35:37.576Z,3.43
2018-12-23T23:38:06.448Z,4.30
2018-12-23T23:40:35.289Z,4.70
2018-12-23T23:43:04.112Z,4.53
2018-12-23T23:45:33.085Z,5.10
2018-12-23T23:48:01.909Z,4.87
2018-12-23T23:50:30.878Z,4.90
2018-12-23T23:53:41.368Z,4.33
2018-12-23T23:56:11.518Z,4.97
2018-12-23T23:58:41.356Z,4.50
